Hacienda Guamani, Puerto Rico
Current Conditions -  °F | °C
As of 5:50 PM on Tuesday 25 Nov 2014 (Local Time) from TJPS Reporting Station
Broken Clouds Broken Clouds  
Wind Chill: 82°   Ceiling: 5000
Heat Index: 89°   Visibility: 8mi
Dew Point: 75°   Wind: 6mph
Humidity: 79%   Direction: 110°ESE
Pressure: 29.95"   Gusts: NA
Location:  17.9849°N, 66.1175°W
Report Text: TJPS 252150Z 11005KT 8SM SCT020 BKN050 28/24 A2995
Loading
Personal Weather Stations






























Interactive Weather Map New forecast layout! Learn more

10-Day Weather Forecast

Advertisements
Track Severe Weather on mobile